TimeCST,TemperatureF,Dew PointF,Humidity,Sea Level PressureIn,VisibilityMPH,Wind Direction,Wind SpeedMPH,Gust SpeedMPH,PrecipitationIn,Events,Conditions,WindDirDegrees,DateUTC
12:53 AM,26.1,25.0,96,30.40,10.0,Calm,Calm,-,N/A,,Clear,0,2012-12-22 06:53:00
1:53 AM,27.0,24.1,89,30.40,10.0,Calm,Calm,-,N/A,,Clear,0,2012-12-22 07:53:00
2:53 AM,25.0,23.0,92,30.40,10.0,SSE,3.5,-,N/A,,Clear,150,2012-12-22 08:53:00
3:53 AM,23.0,21.9,96,30.40,10.0,Calm,Calm,-,N/A,,Clear,0,2012-12-22 09:53:00
4:53 AM,23.0,21.9,96,30.39,10.0,Calm,Calm,-,N/A,,Clear,0,2012-12-22 10:53:00
5:53 AM,25.0,23.0,92,30.40,10.0,Calm,Calm,-,N/A,,Clear,0,2012-12-22 11:53:00
6:53 AM,23.0,21.9,96,30.40,10.0,Calm,Calm,-,N/A,,Clear,0,2012-12-22 12:53:00
7:53 AM,30.9,30.0,96,30.42,10.0,South,3.5,-,N/A,,Clear,180,2012-12-22 13:53:00
8:53 AM,41.0,33.1,73,30.43,10.0,South,4.6,-,N/A,,Clear,180,2012-12-22 14:53:00
9:53 AM,48.0,34.0,58,30.42,10.0,SSW,3.5,-,N/A,,Clear,200,2012-12-22 15:53:00
10:53 AM,55.9,32.0,40,30.40,10.0,Variable,3.5,-,N/A,,Clear,0,2012-12-22 16:53:00
11:53 AM,60.1,28.9,31,30.36,10.0,Variable,4.6,-,N/A,,Clear,0,2012-12-22 17:53:00
12:53 PM,62.1,24.1,23,30.33,10.0,SW,8.1,-,N/A,,Clear,230,2012-12-22 18:53:00
1:53 PM,63.0,27.0,26,30.30,10.0,SSW,8.1,-,N/A,,Clear,210,2012-12-22 19:53:00
2:53 PM,63.0,27.0,26,30.29,10.0,SSW,8.1,-,N/A,,Clear,200,2012-12-22 20:53:00
3:53 PM,62.1,28.9,29,30.27,10.0,South,5.8,-,N/A,,Clear,170,2012-12-22 21:53:00
4:53 PM,57.0,30.0,36,30.27,10.0,SSW,5.8,-,N/A,,Clear,200,2012-12-22 22:53:00
5:53 PM,52.0,28.9,41,30.27,10.0,SSW,4.6,-,N/A,,Clear,200,2012-12-22 23:53:00
6:53 PM,46.9,30.0,52,30.27,10.0,South,3.5,-,N/A,,Clear,190,2012-12-23 00:53:00
7:53 PM,48.0,30.0,50,30.27,10.0,South,5.8,-,N/A,,Clear,180,2012-12-23 01:53:00
8:53 PM,45.0,32.0,60,30.25,10.0,South,5.8,-,N/A,,Clear,180,2012-12-23 02:53:00
9:53 PM,46.9,32.0,56,30.25,10.0,South,4.6,-,N/A,,Clear,180,2012-12-23 03:53:00
10:53 PM,45.0,34.0,65,30.23,10.0,South,4.6,-,N/A,,Clear,180,2012-12-23 04:53:00
11:53 PM,46.0,33.1,61,30.22,10.0,South,5.8,-,N/A,,Clear,170,2012-12-23 05:53:00